createdAt,value
2018-08-28T12:09:33.946Z,52.56
2018-08-28T12:12:02.926Z,52.88
2018-08-28T12:14:31.946Z,52.45
2018-08-28T12:22:15.966Z,47.26
2018-08-28T12:24:44.936Z,49.76
2018-08-28T12:27:14.266Z,52.21
2018-08-28T12:29:43.546Z,53.90
2018-08-28T12:32:34.562Z,55.28
2018-08-28T12:35:48.266Z,56.02
2018-08-28T12:38:17.381Z,56.69
2018-08-28T12:40:46.614Z,56.50
2018-08-28T12:43:15.945Z,56.33
2018-08-28T12:45:44.917Z,56.71
2018-08-28T12:48:14.139Z,57.15
2018-08-28T12:50:43.050Z,56.24
2018-08-28T12:56:04.788Z,56.85
2018-08-28T12:58:34.233Z,56.43
2018-08-28T13:01:03.578Z,56.77
2018-08-28T13:03:32.631Z,56.53
2018-08-28T13:08:55.105Z,56.85
2018-08-28T13:11:24.061Z,56.24
2018-08-28T13:13:53.070Z,56.48
2018-08-28T13:16:22.498Z,56.93
2018-08-28T13:18:51.450Z,56.65
2018-08-28T13:21:20.435Z,57.18
2018-08-28T13:23:49.440Z,56.58
2018-08-28T13:26:18.462Z,56.94
2018-08-28T13:28:47.410Z,56.55
2018-08-28T13:31:19.425Z,57.12
2018-08-28T13:33:48.633Z,57.02
2018-08-28T13:36:17.725Z,56.56
2018-08-28T13:38:46.768Z,56.67
2018-08-28T13:41:17.527Z,57.31
2018-08-28T14:32:42.635Z,57.69
2018-08-28T14:35:11.643Z,56.67
2018-08-28T14:37:40.745Z,57.25
2018-08-28T14:40:09.773Z,57.13
2018-08-28T14:42:38.902Z,56.39
2018-08-28T14:45:08.214Z,56.89
2018-08-28T14:47:41.152Z,56.27
2018-08-28T14:50:10.900Z,56.91
2018-08-28T14:52:39.982Z,56.81
2018-08-28T14:55:09.077Z,56.71
2018-08-28T14:57:38.078Z,55.91
2018-08-28T15:00:07.353Z,55.82
2018-08-28T15:02:36.355Z,56.52
2018-08-28T15:05:06.179Z,56.49
2018-08-28T15:07:43.117Z,56.05
2018-08-28T15:10:12.274Z,56.20
2018-08-28T15:12:41.454Z,56.61
2018-08-28T15:15:10.479Z,56.35
2018-08-28T15:26:18.699Z,55.59
2018-08-28T15:28:53.854Z,55.67
2018-08-28T15:31:23.548Z,56.38
2018-08-28T15:39:41.531Z,56.34
2018-08-28T15:42:28.781Z,56.22
2018-08-28T15:47:50.324Z,55.57
2018-08-28T15:50:19.395Z,56.22
2018-08-28T15:52:48.546Z,55.29
2018-08-28T15:55:17.755Z,56.22
2018-08-28T15:57:46.801Z,55.91
2018-08-28T16:00:16.015Z,55.77
2018-08-28T16:02:45.075Z,56.10
2018-08-28T16:05:14.155Z,55.60
2018-08-28T16:07:43.260Z,55.16
2018-08-28T16:10:12.543Z,55.82
2018-08-28T17:43:30.316Z,55.67
2018-08-28T17:45:59.760Z,54.85
2018-08-28T17:48:28.915Z,54.89
2018-08-28T17:50:58.070Z,55.45
2018-08-28T17:53:27.257Z,55.15
2018-08-28T17:55:56.472Z,55.46
2018-08-28T18:00:16.909Z,55.43
2018-08-28T18:14:39.296Z,55.38
2018-08-28T18:23:01.724Z,54.64
2018-08-28T18:28:30.844Z,55.24
2018-08-28T18:31:02.301Z,55.42
2018-08-28T18:36:44.023Z,55.83
2018-08-28T20:34:28.044Z,55.02
2018-08-28T20:37:09.882Z,54.61
2018-08-28T20:57:07.204Z,55.27
2018-08-28T20:59:36.583Z,55.27
2018-08-28T21:02:06.884Z,54.44
2018-08-28T21:04:36.224Z,55.22
2018-08-28T21:07:06.855Z,55.01
2018-08-28T21:09:36.464Z,55.00
2018-08-28T21:56:49.543Z,54.20
2018-08-28T21:59:25.983Z,54.32
2018-08-28T22:01:55.283Z,54.99
